Time;durP1;ratioP1;P1;durP2;ratioP2;P2;SDS_P1;SDS_P2;PMS_P1;PMS_P2;Temp;Humidity;BMP_temperature;BMP_pressure;BME280_temperature;BME280_humidity;BME280_pressure;Samples;Min_cycle;Max_cycle;Signal;HPM_P1;HPM_P2
2023/12/29 00:01:54;;;;;;;2.70;2.50;;;;;;;1.93;nan;-219.53;4629383;28;20188;-66
2023/12/29 00:04:20;;;;;;;2.47;2.27;;;;;;;1.84;nan;412.38;4998989;28;20179;-63
2023/12/29 00:06:45;;;;;;;3.57;2.90;;;;;;;1.68;nan;410.63;4999984;28;20176;-65
2023/12/29 00:09:12;;;;;;;2.00;1.87;;;;;;;1.32;nan;406.50;4999870;28;20188;-63
2023/12/29 00:11:37;;;;;;;4.53;2.60;;;;;;;1.53;nan;92.59;4999777;28;20184;-63
2023/12/29 00:14:03;;;;;;;4.10;3.10;;;;;;;1.28;nan;-226.25;4999979;28;20202;-63
2023/12/29 00:16:28;;;;;;;2.40;2.20;;;;;;;1.49;nan;-540.31;4999302;28;20655;-65
2023/12/29 00:18:54;;;;;;;2.87;2.57;;;;;;;1.32;nan;-1490.16;5000060;28;20589;-64
2023/12/29 00:21:19;;;;;;;3.57;3.33;;;;;;;1.33;nan;-1806.09;5000639;28;20175;-65
2023/12/29 00:23:44;;;;;;;3.83;3.07;;;;;;;1.23;nan;-1806.91;5000216;28;20250;-64
2023/12/29 00:26:10;;;;;;;3.97;3.27;;;;;;;1.03;nan;-1808.47;4652226;28;21391;-65
2023/12/29 00:28:40;;;;;;;3.00;2.80;;;;;;;1.49;nan;-2120.91;4769105;28;20183;-63
2023/12/29 00:31:05;;;;;;;3.00;2.80;;;;;;;1.38;nan;-1805.75;4999569;28;20254;-65
2023/12/29 00:33:31;;;;;;;3.13;2.17;;;;;;;1.22;nan;-1175.06;4998583;28;20208;-67
2023/12/29 00:35:57;;;;;;;2.10;2.00;;;;;;;1.19;nan;-1175.28;4998792;28;20221;-66
2023/12/29 00:38:23;;;;;;;4.80;3.83;;;;;;;1.44;nan;-1489.22;4997423;28;20191;-66
2023/12/29 00:40:48;;;;;;;2.40;2.30;;;;;;;1.47;nan;-1805.06;4462736;28;21594;-65
2023/12/29 00:43:14;;;;;;;3.77;2.80;;;;;;;1.46;nan;-2121.19;4237272;28;21011;-67
2023/12/29 00:45:39;;;;;;;2.20;2.00;;;;;;;1.44;nan;-1805.28;4711014;28;20263;-68
2023/12/29 00:48:05;;;;;;;5.67;2.87;;;;;;;1.61;nan;-1487.75;4975195;28;20172;-64
2023/12/29 00:50:30;;;;;;;2.90;2.70;;;;;;;1.29;nan;-1174.44;4974307;28;20216;-66
2023/12/29 00:52:56;;;;;;;2.37;2.27;;;;;;;1.29;nan;-1174.44;4984861;28;20199;-65
2023/12/29 00:55:21;;;;;;;2.43;2.27;;;;;;;1.56;nan;-855.81;4993907;28;20195;-65
2023/12/29 00:57:46;;;;;;;2.23;2.10;;;;;;;1.58;nan;93.16;4993747;28;20200;-63
2023/12/29 01:00:13;;;;;;;3.57;2.07;;;;;;;1.36;nan;90.72;4993841;28;20200;-64
2023/12/29 01:02:39;;;;;;;3.77;2.93;;;;;;;1.55;nan;-223.50;4993591;28;20187;-65
2023/12/29 01:05:05;;;;;;;2.33;2.13;;;;;;;1.64;nan;410.19;4993436;28;20266;-64
2023/12/29 01:07:30;;;;;;;2.43;2.23;;;;;;;1.21;nan;721.41;4993502;28;20177;-65
2023/12/29 01:09:56;;;;;;;2.20;2.03;;;;;;;1.42;nan;723.88;4993349;28;20252;-66
2023/12/29 01:12:21;;;;;;;3.07;2.60;;;;;;;1.13;nan;404.31;4992870;28;20184;-64
2023/12/29 01:14:47;;;;;;;2.27;2.07;;;;;;;1.05;nan;87.34;4993196;28;20549;-63
2023/12/29 01:17:12;;;;;;;2.43;2.33;;;;;;;1.35;nan;90.59;4993524;28;20180;-63
2023/12/29 01:19:37;;;;;;;2.00;1.90;;;;;;;1.26;nan;-542.56;4993420;28;20222;-65
2023/12/29 01:22:03;;;;;;;2.43;2.23;;;;;;;1.36;nan;-857.72;4993560;28;20640;-64
2023/12/29 01:24:28;;;;;;;2.87;2.43;;;;;;;1.51;nan;-1172.50;4993291;28;20196;-67
2023/12/29 01:26:54;;;;;;;3.13;2.93;;;;;;;1.21;nan;-859.09;4993174;28;20191;-65
2023/12/29 01:29:19;;;;;;;2.07;1.97;;;;;;;1.23;nan;-542.84;4993294;28;20234;-68
2023/12/29 01:31:45;;;;;;;1.87;1.77;;;;;;;1.18;nan;-543.38;4990506;28;20228;-66
2023/12/29 01:34:10;;;;;;;2.93;2.47;;;;;;;1.44;nan;-224.63;4987343;28;20826;-66
2023/12/29 01:36:36;;;;;;;2.83;2.47;;;;;;;1.38;nan;90.94;4992618;28;20215;-66
2023/12/29 01:39:02;;;;;;;3.57;2.87;;;;;;;1.34;nan;-225.66;4994790;28;20192;-64
2023/12/29 01:41:29;;;;;;;2.43;2.30;;;;;;;0.94;nan;86.13;4993126;28;20214;-66
2023/12/29 01:44:00;;;;;;;2.13;1.67;;;;;;;1.18;nan;-227.31;4992501;28;20239;-68
2023/12/29 01:46:27;;;;;;;3.07;2.87;;;;;;;1.18;nan;404.84;5007678;28;20561;-64
2023/12/29 01:48:53;;;;;;;4.57;3.50;;;;;;;0.78;nan;1032.22;4992621;28;20207;-66
2023/12/29 01:51:22;;;;;;;1.70;1.60;;;;;;;0.71;nan;1031.34;4992352;28;20618;-64
2023/12/29 01:53:48;;;;;;;3.70;2.10;;;;;;;0.99;nan;718.69;4992319;28;20198;-66
2023/12/29 01:56:14;;;;;;;2.17;1.97;;;;;;;0.64;nan;398.66;4990989;28;20236;-65
2023/12/29 01:58:39;;;;;;;2.27;2.10;;;;;;;1.06;nan;719.59;4992793;28;20196;-64
2023/12/29 02:01:06;;;;;;;2.93;2.67;;;;;;;0.71;nan;1979.31;4992433;28;20186;-65
2023/12/29 02:03:33;;;;;;;2.20;2.00;;;;;;;0.62;nan;1977.97;4992735;28;20654;-66
2023/12/29 02:05:58;;;;;;;2.33;2.20;;;;;;;0.71;nan;1663.22;4992693;28;20214;-65
2023/12/29 02:08:24;;;;;;;3.90;2.50;;;;;;;0.41;nan;1659.19;4992336;28;20276;-65
2023/12/29 02:10:49;;;;;;;2.57;2.33;;;;;;;0.19;nan;1024.78;4991884;28;20181;-66
2023/12/29 02:13:15;;;;;;;1.90;1.77;;;;;;;0.40;nan;1027.50;4992124;28;20799;-69
2023/12/29 02:15:41;;;;;;;2.03;1.93;;;;;;;0.47;nan;712.50;4990800;28;20177;-65
2023/12/29 02:18:14;;;;;;;2.87;2.67;;;;;;;0.43;nan;396.28;4991950;28;20169;-65
2023/12/29 02:20:40;;;;;;;1.63;1.53;;;;;;;0.40;nan;-235.47;4992262;28;20300;-68
2023/12/29 02:23:06;;;;;;;4.60;3.47;;;;;;;0.41;nan;-551.00;4989628;28;20264;-63
2023/12/29 02:25:32;;;;;;;2.97;2.77;;;;;;;0.18;nan;-1184.22;4986880;28;20336;-63
2023/12/29 02:28:12;;;;;;;2.77;2.50;;;;;;;0.54;nan;-865.41;4991952;28;20198;-65
2023/12/29 02:30:48;;;;;;;1.97;1.80;;;;;;;0.59;nan;-864.94;4991837;28;20186;-65
2023/12/29 02:33:19;;;;;;;1.77;1.67;;;;;;;0.25;nan;-237.03;4991621;28;20296;-65
2023/12/29 02:35:46;;;;;;;1.93;1.83;;;;;;;0.49;nan;81.16;4991690;28;20177;-64
2023/12/29 02:38:12;;;;;;;2.40;2.20;;;;;;;0.15;nan;-553.53;4991732;28;20186;-65
2023/12/29 02:40:38;;;;;;;2.13;2.03;;;;;;;0.32;nan;-867.44;4992141;28;20180;-65
2023/12/29 02:43:03;;;;;;;1.60;1.50;;;;;;;0.27;nan;-2445.22;4993413;28;20574;-66
2023/12/29 02:45:29;;;;;;;2.67;2.47;;;;;;;-0.01;nan;-2762.28;4992033;28;20179;-65
2023/12/29 02:47:54;;;;;;;3.70;2.43;;;;;;;0.26;nan;-3075.97;4991464;28;20505;-66
2023/12/29 02:50:19;;;;;;;2.30;2.20;;;;;;;0.32;nan;-3706.25;4991780;28;20612;-67
2023/12/29 02:52:45;;;;;;;2.60;2.37;;;;;;;0.36;nan;-4021.34;4989236;28;20204;-64
2023/12/29 02:55:10;;;;;;;2.47;2.37;;;;;;;0.31;nan;-4021.56;4987062;28;20675;-66
2023/12/29 02:57:36;;;;;;;2.80;2.60;;;;;;;-0.01;nan;-4022.91;4991352;28;20201;-64
2023/12/29 03:00:01;;;;;;;3.13;2.83;;;;;;;0.19;nan;-4337.25;4991798;28;20178;-65
2023/12/29 03:02:27;;;;;;;3.13;2.90;;;;;;;-0.13;nan;-4653.38;5022858;28;20231;-65
2023/12/29 03:04:52;;;;;;;2.00;1.77;;;;;;;0.16;nan;-4652.47;4991501;28;20173;-64
2023/12/29 03:07:18;;;;;;;2.10;2.00;;;;;;;0.25;nan;-5597.53;4991166;28;20159;-67
2023/12/29 03:09:43;;;;;;;2.83;2.60;;;;;;;0.31;nan;-6542.59;4991520;28;20257;-64
2023/12/29 03:12:09;;;;;;;2.73;2.53;;;;;;;0.38;nan;-7172.63;4991951;28;20173;-65
2023/12/29 03:14:34;;;;;;;2.27;2.17;;;;;;;0.38;nan;-7172.63;4991434;28;20201;-64
2023/12/29 03:17:00;;;;;;;3.47;2.83;;;;;;;0.33;nan;-7172.56;4991417;28;20179;-65
2023/12/29 03:19:25;;;;;;;2.50;2.07;;;;;;;0.17;nan;-7487.28;4991371;28;20606;-66
2023/12/29 03:21:51;;;;;;;2.73;2.53;;;;;;;0.21;nan;-7802.19;4991106;28;20181;-64
2023/12/29 03:24:16;;;;;;;2.90;2.70;;;;;;;0.27;nan;-8117.16;4991317;28;20701;-64
2023/12/29 03:26:42;;;;;;;3.17;2.40;;;;;;;0.02;nan;-8745.84;4984972;28;20208;-67
2023/12/29 03:29:07;;;;;;;4.30;2.23;;;;;;;0.10;nan;-9060.81;4991451;28;20259;-63
2023/12/29 03:31:33;;;;;;;2.43;2.30;;;;;;;-0.04;nan;-9689.38;4991227;28;20228;-65
2023/12/29 03:33:58;;;;;;;6.83;2.57;;;;;;;0.09;nan;-9690.00;4991195;28;20288;-66
2023/12/29 03:36:24;;;;;;;3.07;2.63;;;;;;;0.05;nan;-9689.78;4994207;28;20242;-64
2023/12/29 03:38:49;;;;;;;2.00;1.90;;;;;;;0.38;nan;-9691.50;4994746;28;20270;-65
2023/12/29 03:41:14;;;;;;;2.93;2.73;;;;;;;0.20;nan;-9061.25;4994788;28;20184;-65
2023/12/29 03:43:40;;;;;;;2.90;2.57;;;;;;;0.41;nan;-8747.28;4993601;28;20704;-63
2023/12/29 03:46:19;;;;;;;1.53;1.43;;;;;;;0.21;nan;-8117.00;4989743;28;20197;-63
2023/12/29 03:48:44;;;;;;;4.77;2.73;;;;;;;0.27;nan;-7802.31;4994713;28;20181;-64
2023/12/29 03:51:10;;;;;;;8.30;4.07;;;;;;;0.29;nan;-7802.34;4994645;28;20242;-64
2023/12/29 03:53:35;;;;;;;5.63;2.83;;;;;;;0.24;nan;-7802.25;4994290;28;20204;-63
2023/12/29 03:56:05;;;;;;;2.40;2.20;;;;;;;-0.09;nan;-8116.22;4994805;28;20670;-63
2023/12/29 03:58:30;;;;;;;3.03;2.77;;;;;;;-0.08;nan;-8116.25;4993411;28;20612;-66
2023/12/29 04:00:56;;;;;;;6.97;3.33;;;;;;;0.12;nan;-8746.22;4994471;28;20177;-64
2023/12/29 04:03:21;;;;;;;3.73;3.43;;;;;;;-0.18;nan;-8745.13;4994262;28;20181;-65
2023/12/29 04:05:46;;;;;;;3.67;2.90;;;;;;;0.10;nan;-9060.81;4994764;28;20662;-65
2023/12/29 04:08:13;;;;;;;2.80;2.60;;;;;;;0.32;nan;-9061.75;4994714;28;20172;-64
2023/12/29 04:10:38;;;;;;;3.13;2.07;;;;;;;0.35;nan;-8747.06;4994499;28;20177;-67
2023/12/29 04:13:04;;;;;;;2.70;2.03;;;;;;;0.02;nan;-8745.84;4994615;28;20585;-69
2023/12/29 04:15:30;;;;;;;2.57;2.43;;;;;;;0.13;nan;-9060.94;4994486;28;20184;-65
2023/12/29 04:17:55;;;;;;;3.53;2.67;;;;;;;0.11;nan;-9690.09;4994100;28;20172;-63
2023/12/29 04:20:21;;;;;;;2.03;1.93;;;;;;;-0.12;nan;-10317.84;4994401;28;20181;-63
2023/12/29 04:22:46;;;;;;;2.23;2.03;;;;;;;-0.16;nan;-10317.56;4994591;28;20332;-63
2023/12/29 04:25:12;;;;;;;1.77;1.67;;;;;;;0.06;nan;-10633.41;4994839;28;20248;-65
2023/12/29 04:27:37;;;;;;;1.57;1.47;;;;;;;-0.11;nan;-10946.72;4994827;28;20191;-65
2023/12/29 04:30:03;;;;;;;2.33;2.23;;;;;;;0.11;nan;-11262.72;5009155;28;20542;-63
2023/12/29 04:32:28;;;;;;;3.57;2.47;;;;;;;-0.02;nan;-11261.78;4994075;28;20225;-66
2023/12/29 04:34:54;;;;;;;2.80;2.60;;;;;;;0.08;nan;-11262.53;5000949;28;20169;-62
2023/12/29 04:37:19;;;;;;;2.17;1.63;;;;;;;0.31;nan;-11578.81;4998474;28;20202;-66
2023/12/29 04:39:44;;;;;;;3.20;2.90;;;;;;;0.27;nan;-11578.53;4994501;28;20177;-64
2023/12/29 04:42:10;;;;;;;1.40;1.37;;;;;;;-0.14;nan;-10946.47;4994656;28;20279;-66
2023/12/29 04:44:36;;;;;;;2.07;1.90;;;;;;;0.16;nan;-10948.66;4994057;28;20173;-64
2023/12/29 04:47:01;;;;;;;5.83;3.20;;;;;;;0.03;nan;-10947.66;4993461;28;20185;-66
2023/12/29 04:49:26;;;;;;;4.27;2.73;;;;;;;-0.14;nan;-11575.13;4993544;28;20176;-65
2023/12/29 04:51:52;;;;;;;2.90;2.40;;;;;;;-0.15;nan;-11889.31;4994179;28;20212;-62
2023/12/29 04:54:17;;;;;;;3.63;3.27;;;;;;;0.22;nan;-11892.56;4994674;28;20197;-65
2023/12/29 04:56:43;;;;;;;2.40;2.20;;;;;;;-0.02;nan;-11576.09;4993898;28;20192;-65
2023/12/29 04:59:08;;;;;;;3.90;2.27;;;;;;;0.26;nan;-11263.91;4994080;28;20189;-64
2023/12/29 05:01:33;;;;;;;3.40;2.37;;;;;;;0.07;nan;-10947.97;4996262;28;20256;-64
2023/12/29 05:03:59;;;;;;;3.03;2.73;;;;;;;-0.14;nan;-10946.50;4995017;28;20719;-64
2023/12/29 05:06:24;;;;;;;1.80;1.50;;;;;;;-0.14;nan;-10946.50;4993800;28;20676;-64
2023/12/29 05:08:49;;;;;;;2.70;2.50;;;;;;;0.08;nan;-10948.03;4993357;28;20207;-64
2023/12/29 05:11:15;;;;;;;1.73;1.63;;;;;;;-0.12;nan;-11261.00;4992589;28;20173;-64
2023/12/29 05:13:40;;;;;;;2.63;2.43;;;;;;;-0.03;nan;-11576.06;4990029;28;20649;-66
2023/12/29 05:16:06;;;;;;;1.43;1.33;;;;;;;0.20;nan;-11263.41;4993152;28;20612;-67
2023/12/29 05:18:31;;;;;;;3.23;2.90;;;;;;;0.00;nan;-10633.03;5007807;28;20193;-67
2023/12/29 05:20:57;;;;;;;3.57;2.73;;;;;;;0.36;nan;-10320.81;4993039;28;20247;-66
2023/12/29 05:23:22;;;;;;;4.73;3.33;;;;;;;-0.03;nan;-9689.41;4993144;28;20178;-65
2023/12/29 05:25:47;;;;;;;6.80;4.47;;;;;;;0.20;nan;-9375.94;4992993;28;20180;-65
2023/12/29 05:28:13;;;;;;;2.80;2.60;;;;;;;0.00;nan;-9375.03;4992869;28;20206;-64
2023/12/29 05:30:38;;;;;;;2.63;2.43;;;;;;;0.25;nan;-8746.72;4991173;28;20192;-66
2023/12/29 05:33:04;;;;;;;5.13;3.57;;;;;;;0.32;nan;-6857.59;4992765;28;20239;-64
2023/12/29 05:35:29;;;;;;;2.23;2.10;;;;;;;-0.15;nan;-5283.28;4993114;28;20184;-64
2023/12/29 05:37:54;;;;;;;2.17;2.07;;;;;;;-0.26;nan;-5913.13;4992751;28;20192;-66
2023/12/29 05:40:20;;;;;;;4.27;3.13;;;;;;;-0.07;nan;-6227.78;4992763;28;20173;-64
2023/12/29 05:42:45;;;;;;;1.77;1.67;;;;;;;-0.26;nan;-6542.59;4992734;28;20684;-67
2023/12/29 05:45:11;;;;;;;1.63;1.53;;;;;;;-0.45;nan;-6542.59;4992658;28;20181;-67
2023/12/29 05:47:36;;;;;;;2.43;2.30;;;;;;;-0.22;nan;-6542.59;4992584;28;20632;-65
2023/12/29 05:50:02;;;;;;;1.63;1.53;;;;;;;-0.59;nan;-6857.09;4993302;28;20184;-64
2023/12/29 05:52:28;;;;;;;1.80;1.70;;;;;;;-0.43;nan;-6857.19;4992636;28;20571;-65
2023/12/29 05:54:54;;;;;;;1.73;1.63;;;;;;;-0.46;nan;-7171.75;4992624;28;20200;-66
2023/12/29 05:57:19;;;;;;;1.90;1.80;;;;;;;-0.40;nan;-6857.22;4992828;28;20180;-65
2023/12/29 05:59:44;;;;;;;1.87;1.77;;;;;;;-0.31;nan;-6857.25;4991567;28;20188;-67
2023/12/29 06:02:10;;;;;;;1.80;1.70;;;;;;;-0.52;nan;-6857.16;4992084;28;20188;-66
2023/12/29 06:04:35;;;;;;;1.77;1.67;;;;;;;-0.51;nan;-7171.69;4992577;28;20175;-64
2023/12/29 06:07:01;;;;;;;1.67;1.53;;;;;;;-0.23;nan;-7486.66;4992274;28;20554;-66
2023/12/29 06:09:26;;;;;;;1.80;1.70;;;;;;;-0.48;nan;-7486.25;4992329;28;20671;-67
2023/12/29 06:11:52;;;;;;;2.27;2.13;;;;;;;-0.08;nan;-7801.56;4992148;28;20230;-64
2023/12/29 06:14:17;;;;;;;1.60;1.50;;;;;;;-0.41;nan;-7800.88;4992173;28;20227;-67
2023/12/29 06:16:43;;;;;;;1.90;1.77;;;;;;;-0.10;nan;-7801.53;4992154;28;20184;-64
2023/12/29 06:19:09;;;;;;;1.90;1.80;;;;;;;-0.24;nan;-8115.84;4991789;28;20191;-67
2023/12/29 06:21:43;;;;;;;1.77;1.53;;;;;;;-0.02;nan;-8116.41;4992176;28;20174;-65
2023/12/29 06:24:09;;;;;;;1.67;1.57;;;;;;;-0.32;nan;-8115.63;4991873;28;20180;-63
2023/12/29 06:26:35;;;;;;;2.00;1.90;;;;;;;0.13;nan;-8431.53;4991810;28;20666;-67
2023/12/29 06:29:00;;;;;;;2.50;2.30;;;;;;;-0.01;nan;-8431.09;4991975;28;20181;-64
2023/12/29 06:31:26;;;;;;;2.07;1.87;;;;;;;0.24;nan;-8431.91;4991647;28;20587;-65
2023/12/29 06:33:51;;;;;;;3.30;2.33;;;;;;;0.35;nan;-8117.38;4991820;28;20295;-65
2023/12/29 06:36:18;;;;;;;2.07;1.97;;;;;;;0.18;nan;-7487.28;4991589;28;20224;-67
2023/12/29 06:38:48;;;;;;;1.80;1.70;;;;;;;0.63;nan;-7488.00;4992034;28;20591;-63
2023/12/29 06:41:13;;;;;;;4.03;2.57;;;;;;;0.47;nan;-7172.72;4991993;28;20192;-67
2023/12/29 06:43:39;;;;;;;2.13;2.03;;;;;;;0.64;nan;-7488.00;4991838;28;20652;-65
2023/12/29 06:46:04;;;;;;;1.50;1.40;;;;;;;0.61;nan;-6857.75;5006652;28;20610;-65
2023/12/29 06:48:30;;;;;;;1.50;1.40;;;;;;;0.93;nan;-6542.59;4991817;28;20254;-66
2023/12/29 06:50:55;;;;;;;1.60;1.50;;;;;;;0.76;nan;-5912.06;4987311;28;20198;-63
2023/12/29 06:53:20;;;;;;;2.03;1.93;;;;;;;1.07;nan;-5911.72;4990729;28;20563;-67
2023/12/29 06:55:46;;;;;;;2.17;1.83;;;;;;;0.94;nan;-4650.06;4992992;28;20269;-64
2023/12/29 06:58:11;;;;;;;2.20;2.00;;;;;;;1.32;nan;-2754.00;4992376;28;20176;-67
2023/12/29 07:00:37;;;;;;;4.43;3.20;;;;;;;1.17;nan;-2123.25;4991875;28;20222;-65
2023/12/29 07:03:02;;;;;;;3.60;2.47;;;;;;;1.01;nan;-3703.06;4992375;28;20178;-66
2023/12/29 07:05:28;;;;;;;3.63;2.20;;;;;;;1.12;nan;-4018.19;4992464;28;20179;-66
2023/12/29 07:07:53;;;;;;;7.73;4.27;;;;;;;1.10;nan;-4649.56;4992635;28;20179;-64
2023/12/29 07:10:18;;;;;;;3.07;2.87;;;;;;;1.55;nan;-4963.94;4993845;28;20184;-64
2023/12/29 07:12:44;;;;;;;2.87;2.57;;;;;;;1.43;nan;-4332.72;4996779;28;20182;-64
2023/12/29 07:15:10;;;;;;;1.57;1.47;;;;;;;1.61;nan;-4332.03;4996410;28;20176;-65
2023/12/29 07:17:35;;;;;;;1.97;1.87;;;;;;;1.89;nan;-4647.06;4997280;28;20165;-67
2023/12/29 07:20:01;;;;;;;5.43;1.90;;;;;;;1.71;nan;-4647.59;4996539;28;20180;-61
2023/12/29 07:22:26;;;;;;;2.93;2.60;;;;;;;1.87;nan;-3698.97;4996233;28;20553;-68
2023/12/29 07:24:52;;;;;;;2.40;2.20;;;;;;;1.87;nan;-4015.03;4989584;28;20189;-66
2023/12/29 07:27:17;;;;;;;2.87;2.67;;;;;;;2.09;nan;-4330.28;4995682;28;20188;-66
2023/12/29 07:29:43;;;;;;;2.40;2.20;;;;;;;1.87;nan;-4015.06;4995375;28;20648;-66
2023/12/29 07:32:08;;;;;;;1.70;1.60;;;;;;;2.32;nan;-3380.50;4995238;28;20231;-65
2023/12/29 07:34:33;;;;;;;2.00;1.80;;;;;;;2.56;nan;-2429.63;4994959;28;20204;-64
2023/12/29 07:36:59;;;;;;;2.23;2.03;;;;;;;2.32;nan;-1165.25;4995432;28;20180;-67
2023/12/29 07:39:25;;;;;;;2.50;2.37;;;;;;;2.38;nan;-2430.91;4995247;28;20620;-66
2023/12/29 07:41:51;;;;;;;2.43;2.10;;;;;;;2.78;nan;-2428.16;4993747;28;20176;-62
2023/12/29 07:44:17;;;;;;;4.20;2.83;;;;;;;2.91;nan;-1793.66;4990385;28;20551;-67
2023/12/29 07:46:43;;;;;;;2.23;2.03;;;;;;;3.01;nan;-842.16;4996540;28;20188;-65
2023/12/29 07:49:09;;;;;;;2.40;2.10;;;;;;;3.15;nan;-523.75;4995634;28;20173;-64
2023/12/29 07:51:39;;;;;;;1.83;1.73;;;;;;;2.69;nan;-528.38;5026790;28;20203;-65
2023/12/29 07:54:04;;;;;;;2.57;2.37;;;;;;;3.62;nan;1385.34;4995721;28;20691;-65
2023/12/29 07:56:30;;;;;;;1.43;1.33;;;;;;;3.65;nan;4244.47;4996020;28;20223;-65
2023/12/29 07:58:55;;;;;;;2.00;1.90;;;;;;;3.91;nan;5521.06;4995358;28;20177;-65
2023/12/29 08:01:20;;;;;;;2.23;2.13;;;;;;;3.81;nan;4247.44;4996714;28;20176;-65
2023/12/29 08:03:46;;;;;;;1.87;1.77;;;;;;;3.94;nan;3613.91;4995579;28;20553;-64
2023/12/29 08:06:12;;;;;;;2.50;2.30;;;;;;;4.18;nan;3935.91;4996155;28;20223;-66
2023/12/29 08:08:37;;;;;;;1.50;1.40;;;;;;;3.94;nan;4249.72;4995607;28;20284;-64
2023/12/29 08:11:03;;;;;;;2.30;2.20;;;;;;;4.35;nan;5211.63;4995290;28;20237;-66
2023/12/29 08:13:28;;;;;;;3.07;2.03;;;;;;;4.52;nan;7125.38;4995246;28;20210;-63
2023/12/29 08:15:54;;;;;;;2.87;2.20;;;;;;;4.44;nan;7442.28;4995840;28;20204;-63
2023/12/29 08:18:19;;;;;;;2.07;1.87;;;;;;;4.85;nan;7451.66;4996281;28;20283;-64
2023/12/29 08:20:45;;;;;;;3.63;2.20;;;;;;;4.97;nan;9367.69;4995896;28;20248;-63
2023/12/29 08:23:10;;;;;;;1.93;1.83;;;;;;;5.01;nan;10006.81;4988019;28;20197;-64
2023/12/29 08:25:39;;;;;;;2.00;1.90;;;;;;;5.30;nan;10972.59;4984621;28;20548;-65
2023/12/29 08:28:05;;;;;;;2.23;1.80;;;;;;;5.48;nan;14172.97;4983337;28;20201;-67
2023/12/29 08:30:30;;;;;;;2.00;1.90;;;;;;;5.39;nan;15768.66;4982419;28;20564;-64
2023/12/29 08:32:56;;;;;;;1.70;1.53;;;;;;;5.38;nan;18327.66;4985144;28;20214;-63
2023/12/29 08:35:21;;;;;;;2.33;1.73;;;;;;;5.50;nan;18652.56;4980198;28;20272;-67
2023/12/29 08:37:47;;;;;;;2.10;1.90;;;;;;;5.66;nan;19620.31;4971671;28;20625;-64
2023/12/29 08:40:12;;;;;;;1.57;1.47;;;;;;;5.97;nan;24123.41;4980177;28;20185;-64
2023/12/29 08:42:38;;;;;;;2.00;1.63;;;;;;;6.09;nan;25092.38;4987060;28;20188;-64
2023/12/29 08:45:03;;;;;;;1.67;1.57;;;;;;;5.88;nan;23156.09;4990516;28;20176;-66
2023/12/29 08:47:29;;;;;;;1.80;1.70;;;;;;;6.02;nan;20917.88;4987075;28;20606;-66
2023/12/29 08:49:55;;;;;;;1.83;1.73;;;;;;;6.36;nan;21574.94;4980064;28;20181;-63
2023/12/29 08:52:20;;;;;;;2.30;1.90;;;;;;;6.56;nan;24153.16;4979419;28;20194;-62
2023/12/29 08:54:46;;;;;;;1.60;1.50;;;;;;;6.61;nan;27691.63;4984677;28;20235;-65
2023/12/29 08:57:11;;;;;;;1.67;1.57;;;;;;;6.98;nan;29965.81;4977790;28;20185;-65
2023/12/29 08:59:37;;;;;;;8.03;2.03;;;;;;;6.88;nan;31892.00;4985991;28;20563;-63
2023/12/29 09:02:03;;;;;;;3.80;2.57;;;;;;;7.13;nan;34164.41;4983556;28;20202;-67
2023/12/29 09:04:28;;;;;;;3.57;2.00;;;;;;;7.40;nan;35796.31;4980504;28;20645;-65
2023/12/29 09:06:54;;;;;;;1.73;1.63;;;;;;;7.51;nan;35480.91;4983551;28;20184;-64
2023/12/29 09:09:19;;;;;;;2.90;2.27;;;;;;;7.71;nan;35494.97;4978997;28;20264;-64
2023/12/29 09:11:46;;;;;;;1.97;1.87;;;;;;;7.77;nan;42040.38;4984926;28;20611;-64
2023/12/29 09:14:11;;;;;;;1.70;1.60;;;;;;;7.71;nan;48780.81;4983571;28;20209;-67
2023/12/29 09:16:37;;;;;;;1.83;1.70;;;;;;;8.04;nan;53497.31;4990854;28;21073;-64
2023/12/29 09:19:03;;;;;;;2.07;1.90;;;;;;;8.17;nan;53380.91;4991843;28;20224;-67
2023/12/29 09:21:28;;;;;;;2.20;2.00;;;;;;;8.23;nan;54943.31;4989380;28;20247;-66
2023/12/29 09:23:54;;;;;;;1.93;1.67;;;;;;;8.45;nan;56325.41;4983244;28;20181;-67
2023/12/29 09:26:19;;;;;;;1.97;1.87;;;;;;;8.30;nan;57192.00;4992221;28;20260;-66
2023/12/29 09:28:45;;;;;;;2.20;2.00;;;;;;;8.66;nan;57219.63;4992598;28;20184;-65
2023/12/29 09:31:11;;;;;;;2.90;2.17;;;;;;;8.80;nan;57817.13;4981062;28;20288;-66
2023/12/29 09:33:37;;;;;;;2.23;2.03;;;;;;;8.96;nan;58349.88;4990141;28;20210;-67
2023/12/29 09:36:03;;;;;;;2.25;2.13;;;;;;;9.18;nan;58781.69;4983397;28;20208;-67
2023/12/29 09:38:29;;;;;;;1.80;1.70;;;;;;;9.28;nan;58995.81;4984545;28;20185;-65
2023/12/29 09:40:59;;;;;;;2.10;1.75;;;;;;;9.42;nan;59141.06;4988567;28;20192;-64
2023/12/29 09:43:25;;;;;;;1.85;1.65;;;;;;;9.39;nan;59196.38;4983177;28;20594;-66
2023/12/29 09:45:52;;;;;;;1.65;1.55;;;;;;;9.43;nan;59350.53;4979424;28;20240;-68
2023/12/29 09:48:19;;;;;;;1.70;1.60;;;;;;;9.79;nan;59351.94;4983629;28;20203;-64
2023/12/29 09:50:46;;;;;;;4.82;2.22;;;;;;;10.06;nan;59511.75;4977470;28;20649;-66
2023/12/29 09:53:13;;;;;;;2.33;2.13;;;;;;;10.16;nan;59599.34;4988103;28;20551;-65
2023/12/29 09:55:41;;;;;;;2.20;1.80;;;;;;;10.39;nan;59948.34;4983116;28;20188;-62
2023/12/29 09:58:08;;;;;;;1.83;1.73;;;;;;;10.43;nan;60207.47;4980744;28;20225;-65
2023/12/29 10:00:34;;;;;;;1.95;1.52;;;;;;;10.57;nan;60698.59;4991272;28;20177;-66
2023/12/29 10:03:00;;;;;;;2.22;2.03;;;;;;;10.69;nan;60797.75;4988509;28;20195;-64
2023/12/29 10:05:26;;;;;;;2.75;1.77;;;;;;;10.84;nan;60812.66;4992508;28;20580;-63
2023/12/29 10:07:53;;;;;;;3.05;2.20;;;;;;;10.58;nan;60743.13;4993089;28;20188;-62
2023/12/29 10:10:23;;;;;;;1.70;1.60;;;;;;;10.82;nan;60823.16;4992244;28;20275;-65
2023/12/29 10:12:49;;;;;;;2.28;2.10;;;;;;;11.02;nan;60817.00;4992152;28;20172;-64
2023/12/29 10:15:19;;;;;;;1.77;1.67;;;;;;;11.27;nan;60857.34;4992105;28;20271;-65
2023/12/29 10:17:47;;;;;;;1.60;1.50;;;;;;;11.21;nan;60819.91;4991952;28;20188;-65
2023/12/29 10:20:37;;;;;;;2.30;1.95;;;;;;;11.28;nan;60832.91;4992120;28;20173;-66
2023/12/29 10:23:13;;;;;;;2.55;2.35;;;;;;;11.14;nan;60856.06;4991743;28;20585;-65
2023/12/29 10:25:39;;;;;;;1.80;1.70;;;;;;;11.43;nan;60873.34;4991756;28;20190;-65
2023/12/29 10:28:06;;;;;;;1.92;1.83;;;;;;;11.53;nan;60920.44;4992105;28;20176;-65
2023/12/29 10:30:32;;;;;;;2.50;2.17;;;;;;;11.62;nan;60919.78;4991790;28;20299;-64
2023/12/29 10:32:58;;;;;;;2.42;2.22;;;;;;;11.73;nan;60908.59;4992253;28;20263;-65
2023/12/29 10:35:24;;;;;;;4.18;2.28;;;;;;;11.97;nan;60953.53;4992208;28;20172;-65
2023/12/29 10:37:49;;;;;;;4.53;3.25;;;;;;;12.09;nan;60971.59;4992605;28;20169;-64
2023/12/29 10:40:19;;;;;;;3.50;2.80;;;;;;;12.09;nan;60969.63;4992505;28;20204;-63
2023/12/29 10:42:54;;;;;;;2.83;2.40;;;;;;;12.16;nan;60982.06;4992469;28;20714;-66
2023/12/29 10:45:20;;;;;;;2.90;2.30;;;;;;;11.94;nan;60960.38;4992031;28;20176;-64
2023/12/29 10:47:46;;;;;;;4.18;2.35;;;;;;;12.12;nan;60960.19;4991956;28;20176;-66
2023/12/29 10:50:12;;;;;;;2.22;1.73;;;;;;;11.93;nan;60941.91;4992433;28;20186;-64
2023/12/29 10:52:40;;;;;;;4.20;2.85;;;;;;;12.15;nan;61119.19;4991928;28;20195;-64
2023/12/29 10:55:08;;;;;;;2.75;2.45;;;;;;;12.21;nan;60975.44;4992090;28;20220;-62
2023/12/29 10:57:34;;;;;;;3.50;2.47;;;;;;;12.44;nan;61025.88;4992394;28;20195;-65
2023/12/29 11:00:00;;;;;;;2.55;2.22;;;;;;;12.63;nan;61040.16;4991906;28;20643;-66
2023/12/29 11:02:28;;;;;;;3.15;2.00;;;;;;;12.53;nan;61031.44;4992028;28;20200;-64
2023/12/29 11:05:04;;;;;;;2.25;2.03;;;;;;;12.91;nan;60993.69;4992308;28;20695;-64
2023/12/29 11:07:41;;;;;;;2.65;2.30;;;;;;;13.01;nan;61056.25;4992083;28;20180;-65
2023/12/29 11:10:09;;;;;;;3.63;2.30;;;;;;;12.86;nan;61021.97;4992021;28;20172;-63
2023/12/29 11:12:36;;;;;;;1.95;1.83;;;;;;;12.87;nan;61045.59;4991745;28;20180;-64
2023/12/29 11:15:03;;;;;;;3.15;2.35;;;;;;;13.04;nan;61039.13;4991534;28;20263;-65
2023/12/29 11:17:31;;;;;;;3.28;2.30;;;;;;;13.03;nan;61053.97;4991824;28;20188;-62
2023/12/29 11:19:59;;;;;;;2.85;2.17;;;;;;;13.16;nan;61065.50;4991539;28;20240;-66
2023/12/29 11:22:28;;;;;;;2.45;1.98;;;;;;;13.02;nan;61167.66;4991459;28;20624;-63
2023/12/29 11:24:53;;;;;;;2.92;2.55;;;;;;;13.02;nan;61078.47;4991811;28;20496;-65
2023/12/29 11:27:21;;;;;;;2.60;2.22;;;;;;;12.73;nan;61022.69;4988103;28;20667;-67
2023/12/29 11:29:47;;;;;;;2.05;1.75;;;;;;;12.89;nan;61040.72;4989147;28;20676;-65
2023/12/29 11:32:18;;;;;;;9.45;1.88;;;;;;;13.08;nan;61146.22;4991162;28;20240;-65
2023/12/29 11:34:55;;;;;;;2.67;2.13;;;;;;;13.33;nan;61079.53;4989975;28;20218;-66
2023/12/29 11:37:37;;;;;;;4.55;2.45;;;;;;;13.45;nan;61028.38;4991251;28;20230;-64
2023/12/29 11:40:19;;;;;;;3.50;2.05;;;;;;;13.43;nan;61072.31;4991333;28;20172;-67
2023/12/29 11:42:48;;;;;;;3.30;2.03;;;;;;;13.38;nan;61087.19;4991313;28;20168;-66
2023/12/29 11:45:24;;;;;;;1.55;1.45;;;;;;;13.48;nan;61062.56;4990969;28;20169;-65
2023/12/29 11:47:53;;;;;;;4.30;2.00;;;;;;;13.51;nan;61112.69;4991296;28;20211;-66
2023/12/29 11:50:31;;;;;;;2.92;2.28;;;;;;;13.62;nan;61078.34;4991231;28;20649;-64
2023/12/29 11:52:57;;;;;;;4.57;2.80;;;;;;;13.48;nan;61080.50;4991597;28;20260;-66
2023/12/29 11:55:28;;;;;;;2.50;2.30;;;;;;;13.88;nan;61140.47;4991731;28;20351;-64